This is the latest recevied weather packets stored in our database for station/object KD4PMP. If no packets are shown the sender has not sent any weather packets the latest 10 day(s).
| Time | Temp. | Humidity | Pressure | Rain* | Wind** | Luminosity | Snow |
|---|---|---|---|---|---|---|---|
| 1777596618 | 15.56° C | 59% | 1014.1 hPa | 0 mm | - | - | - |
| 1777596018 | 15.56° C | 56% | 1013.8 hPa | 0 mm | - | - | - |
| 1777595418 | 16.11° C | 55% | 1013.8 hPa | 0 mm | - | - | - |
| 1777594817 | 16.11° C | 54% | 1013.7 hPa | 0 mm | - | - | - |
| 1777594217 | 16.11° C | 54% | 1013.7 hPa | 0 mm | - | - | - |
| 1777593617 | 16.67° C | 51% | 1013.5 hPa | 0 mm | - | - | - |
| 1777593016 | 16.67° C | 51% | 1013.6 hPa | 0 mm | - | - | - |
| 1777592416 | 17.22° C | 50% | 1013.5 hPa | 0 mm | - | - | - |
| 1777591816 | 17.22° C | 49% | 1013.5 hPa | 0 mm | - | - | - |
| 1777591215 | 17.78° C | 46% | 1013.5 hPa | 0 mm | - | - | - |
| 1777590615 | 17.78° C | 48% | 1013.7 hPa | 0 mm | - | - | - |
| 1777590015 | 18.33° C | 45% | 1013.8 hPa | 0 mm | - | - | - |
| 1777589415 | 18.89° C | 43% | 1013.6 hPa | 0 mm | - | - | - |
| 1777588814 | 18.89° C | 43% | 1013.8 hPa | 0 mm | - | - | - |
| 1777588214 | 18.33° C | 45% | 1013.6 hPa | 0 mm | - | - | - |
| 1777587614 | 18.89° C | 43% | 1013.8 hPa | 0 mm | - | - | - |
| 1777587013 | 18.89° C | 45% | 1013.9 hPa | 0 mm | - | - | - |
| 1777586413 | 18.89° C | 41% | 1013.8 hPa | 0 mm | - | - | - |
| 1777585813 | 18.89° C | 43% | 1014 hPa | 0 mm | - | - | - |
| 1777585213 | 18.89° C | 43% | 1014 hPa | 0 mm | - | - | - |
| 1777584613 | 18.89° C | 44% | 1014.2 hPa | 0 mm | - | - | - |
| 1777584012 | 18.89° C | 44% | 1014.4 hPa | 0 mm | - | - | - |
| 1777583412 | 18.33° C | 46% | 1014.4 hPa | 0 mm | - | - | - |
| 1777582812 | 18.33° C | 45% | 1014.4 hPa | 0 mm | - | - | - |
| 1777582211 | 17.78° C | 45% | 1014.4 hPa | 0 mm | - | - | - |
* Rain latest hour (hover to see other rain measurements)
** Current wind speed in m/s (hover to see current wind gust speed)